sensor_id;sensor_type;location;lat;lon;timestamp;temperature;humidity
44435;DHT22;30138;20.964;105.830;2022-11-20T00:00:45;28.40;99.90
44435;DHT22;30138;20.964;105.830;2022-11-20T00:05:52;28.40;99.90
44435;DHT22;30138;20.964;105.830;2022-11-20T00:11:05;28.40;99.90
44435;DHT22;30138;20.964;105.830;2022-11-20T00:16:14;28.40;99.90
44435;DHT22;30138;20.964;105.830;2022-11-20T00:21:24;28.40;99.90
44435;DHT22;30138;20.964;105.830;2022-11-20T00:26:33;28.30;99.90
44435;DHT22;30138;20.964;105.830;2022-11-20T00:31:40;28.40;99.90
44435;DHT22;30138;20.964;105.830;2022-11-20T00:36:49;28.30;99.90
44435;DHT22;30138;20.964;105.830;2022-11-20T00:41:58;28.30;99.90
44435;DHT22;30138;20.964;105.830;2022-11-20T00:47:05;28.40;99.90
44435;DHT22;30138;20.964;105.830;2022-11-20T00:52:12;28.40;99.90
44435;DHT22;30138;20.964;105.830;2022-11-20T00:57:23;28.40;99.90
44435;DHT22;30138;20.964;105.830;2022-11-20T01:02:32;28.40;99.90
44435;DHT22;30138;20.964;105.830;2022-11-20T01:07:39;28.40;99.90
44435;DHT22;30138;20.964;105.830;2022-11-20T01:12:49;28.50;99.90
44435;DHT22;30138;20.964;105.830;2022-11-20T01:18:16;28.60;99.90
44435;DHT22;30138;20.964;105.830;2022-11-20T01:23:23;28.80;99.90
44435;DHT22;30138;20.964;105.830;2022-11-20T01:28:35;28.90;99.90
44435;DHT22;30138;20.964;105.830;2022-11-20T01:33:44;28.90;99.90
44435;DHT22;30138;20.964;105.830;2022-11-20T01:38:52;29.00;99.80
44435;DHT22;30138;20.964;105.830;2022-11-20T01:44:03;29.00;99.80
44435;DHT22;30138;20.964;105.830;2022-11-20T01:49:17;29.00;99.70
44435;DHT22;30138;20.964;105.830;2022-11-20T01:54:30;29.00;99.60
44435;DHT22;30138;20.964;105.830;2022-11-20T01:59:45;29.10;99.60
44435;DHT22;30138;20.964;105.830;2022-11-20T02:04:58;29.10;99.60
44435;DHT22;30138;20.964;105.830;2022-11-20T02:10:11;29.10;99.60
44435;DHT22;30138;20.964;105.830;2022-11-20T02:15:22;29.20;99.60
44435;DHT22;30138;20.964;105.830;2022-11-20T02:20:30;29.30;99.60
44435;DHT22;30138;20.964;105.830;2022-11-20T02:25:44;29.40;99.60
44435;DHT22;30138;20.964;105.830;2022-11-20T02:30:52;29.50;99.60
44435;DHT22;30138;20.964;105.830;2022-11-20T02:36:00;29.60;99.50
44435;DHT22;30138;20.964;105.830;2022-11-20T02:41:10;29.60;99.40
44435;DHT22;30138;20.964;105.830;2022-11-20T02:46:19;29.60;99.40
44435;DHT22;30138;20.964;105.830;2022-11-20T02:51:26;29.70;99.30
44435;DHT22;30138;20.964;105.830;2022-11-20T02:56:38;29.70;99.30
44435;DHT22;30138;20.964;105.830;2022-11-20T03:01:46;29.70;99.30
44435;DHT22;30138;20.964;105.830;2022-11-20T03:06:54;29.80;99.30
44435;DHT22;30138;20.964;105.830;2022-11-20T03:12:03;29.80;99.60
44435;DHT22;30138;20.964;105.830;2022-11-20T03:17:10;29.80;99.30
44435;DHT22;30138;20.964;105.830;2022-11-20T03:22:19;29.80;99.30
44435;DHT22;30138;20.964;105.830;2022-11-20T03:27:35;29.80;99.30
44435;DHT22;30138;20.964;105.830;2022-11-20T03:32:43;29.80;99.30
44435;DHT22;30138;20.964;105.830;2022-11-20T03:37:50;29.80;99.30
44435;DHT22;30138;20.964;105.830;2022-11-20T03:43:00;29.90;99.30
44435;DHT22;30138;20.964;105.830;2022-11-20T03:48:08;29.80;99.30
44435;DHT22;30138;20.964;105.830;2022-11-20T03:53:15;29.90;99.40
44435;DHT22;30138;20.964;105.830;2022-11-20T03:58:25;29.90;99.30
44435;DHT22;30138;20.964;105.830;2022-11-20T04:03:32;29.90;99.20
44435;DHT22;30138;20.964;105.830;2022-11-20T04:08:39;29.90;99.30
44435;DHT22;30138;20.964;105.830;2022-11-20T04:13:50;30.00;98.90
44435;DHT22;30138;20.964;105.830;2022-11-20T04:18:59;30.00;99.10
44435;DHT22;30138;20.964;105.830;2022-11-20T04:24:07;30.10;99.10
44435;DHT22;30138;20.964;105.830;2022-11-20T04:29:16;30.10;99.10
44435;DHT22;30138;20.964;105.830;2022-11-20T04:34:23;30.10;99.10
44435;DHT22;30138;20.964;105.830;2022-11-20T04:39:31;30.00;98.90
44435;DHT22;30138;20.964;105.830;2022-11-20T04:44:40;30.00;98.80
44435;DHT22;30138;20.964;105.830;2022-11-20T04:49:48;30.00;98.80
44435;DHT22;30138;20.964;105.830;2022-11-20T04:54:56;30.00;98.90
44435;DHT22;30138;20.964;105.830;2022-11-20T05:00:07;30.00;98.90
44435;DHT22;30138;20.964;105.830;2022-11-20T05:05:14;30.10;99.00
44435;DHT22;30138;20.964;105.830;2022-11-20T05:10:22;30.10;99.00
44435;DHT22;30138;20.964;105.830;2022-11-20T05:15:31;30.10;99.00
44435;DHT22;30138;20.964;105.830;2022-11-20T05:20:39;30.20;99.00
44435;DHT22;30138;20.964;105.830;2022-11-20T05:25:46;30.20;99.00
44435;DHT22;30138;20.964;105.830;2022-11-20T05:30:55;30.30;98.90
44435;DHT22;30138;20.964;105.830;2022-11-20T05:36:09;30.30;98.70
44435;DHT22;30138;20.964;105.830;2022-11-20T05:41:17;30.30;98.80
44435;DHT22;30138;20.964;105.830;2022-11-20T05:46:27;30.30;98.80
44435;DHT22;30138;20.964;105.830;2022-11-20T05:51:34;30.30;98.60
44435;DHT22;30138;20.964;105.830;2022-11-20T05:56:41;30.30;98.70
44435;DHT22;30138;20.964;105.830;2022-11-20T06:01:50;30.30;98.60
44435;DHT22;30138;20.964;105.830;2022-11-20T06:06:58;30.30;98.60
44435;DHT22;30138;20.964;105.830;2022-11-20T06:12:06;30.30;98.40
44435;DHT22;30138;20.964;105.830;2022-11-20T06:17:15;30.30;98.50
44435;DHT22;30138;20.964;105.830;2022-11-20T06:22:24;30.40;98.90
44435;DHT22;30138;20.964;105.830;2022-11-20T06:27:31;30.40;98.80
44435;DHT22;30138;20.964;105.830;2022-11-20T06:32:40;30.50;98.80
44435;DHT22;30138;20.964;105.830;2022-11-20T06:37:48;30.50;98.50
44435;DHT22;30138;20.964;105.830;2022-11-20T06:42:55;30.60;98.40
44435;DHT22;30138;20.964;105.830;2022-11-20T06:48:05;30.60;98.10
44435;DHT22;30138;20.964;105.830;2022-11-20T06:53:12;30.50;98.20
44435;DHT22;30138;20.964;105.830;2022-11-20T06:58:20;30.50;98.20
44435;DHT22;30138;20.964;105.830;2022-11-20T07:03:31;30.50;98.10
44435;DHT22;30138;20.964;105.830;2022-11-20T07:08:38;30.50;98.00
44435;DHT22;30138;20.964;105.830;2022-11-20T07:13:46;30.40;98.20
44435;DHT22;30138;20.964;105.830;2022-11-20T07:18:56;30.40;98.20
44435;DHT22;30138;20.964;105.830;2022-11-20T07:24:03;30.40;98.20
44435;DHT22;30138;20.964;105.830;2022-11-20T07:29:11;30.40;98.20
44435;DHT22;30138;20.964;105.830;2022-11-20T07:34:22;30.40;98.10
44435;DHT22;30138;20.964;105.830;2022-11-20T07:39:30;30.40;98.20
44435;DHT22;30138;20.964;105.830;2022-11-20T07:44:37;30.40;98.60
44435;DHT22;30138;20.964;105.830;2022-11-20T07:49:47;30.40;98.30
44435;DHT22;30138;20.964;105.830;2022-11-20T07:54:55;30.40;98.30
44435;DHT22;30138;20.964;105.830;2022-11-20T08:00:04;30.50;98.80
44435;DHT22;30138;20.964;105.830;2022-11-20T08:05:18;30.50;98.40
44435;DHT22;30138;20.964;105.830;2022-11-20T08:10:26;30.50;98.30
44435;DHT22;30138;20.964;105.830;2022-11-20T08:15:33;30.50;98.20
44435;DHT22;30138;20.964;105.830;2022-11-20T08:20:42;30.50;98.00
44435;DHT22;30138;20.964;105.830;2022-11-20T08:25:51;30.50;98.00
44435;DHT22;30138;20.964;105.830;2022-11-20T08:30:59;30.50;98.30
44435;DHT22;30138;20.964;105.830;2022-11-20T08:36:09;30.50;98.20
44435;DHT22;30138;20.964;105.830;2022-11-20T08:41:17;30.50;98.10
44435;DHT22;30138;20.964;105.830;2022-11-20T08:46:33;30.40;98.20
44435;DHT22;30138;20.964;105.830;2022-11-20T08:51:42;30.40;98.20
44435;DHT22;30138;20.964;105.830;2022-11-20T08:56:51;30.50;98.20
44435;DHT22;30138;20.964;105.830;2022-11-20T09:02:00;30.50;98.20
44435;DHT22;30138;20.964;105.830;2022-11-20T09:07:12;30.40;98.20
44435;DHT22;30138;20.964;105.830;2022-11-20T09:12:20;30.40;98.30
44435;DHT22;30138;20.964;105.830;2022-11-20T09:17:27;30.40;98.30
44435;DHT22;30138;20.964;105.830;2022-11-20T09:22:38;30.40;98.40
44435;DHT22;30138;20.964;105.830;2022-11-20T09:27:46;30.40;98.50
44435;DHT22;30138;20.964;105.830;2022-11-20T09:32:54;30.40;98.50
44435;DHT22;30138;20.964;105.830;2022-11-20T09:38:08;30.40;98.40
44435;DHT22;30138;20.964;105.830;2022-11-20T09:43:19;30.40;98.10
44435;DHT22;30138;20.964;105.830;2022-11-20T09:48:57;30.30;97.90
44435;DHT22;30138;20.964;105.830;2022-11-20T09:54:16;30.30;98.00
44435;DHT22;30138;20.964;105.830;2022-11-20T09:59:33;30.30;98.00
44435;DHT22;30138;20.964;105.830;2022-11-20T10:04:46;30.30;97.90
44435;DHT22;30138;20.964;105.830;2022-11-20T10:09:59;30.30;97.60
44435;DHT22;30138;20.964;105.830;2022-11-20T10:15:14;30.20;97.40
44435;DHT22;30138;20.964;105.830;2022-11-20T10:20:34;30.20;97.30
44435;DHT22;30138;20.964;105.830;2022-11-20T10:25:56;30.20;97.20
44435;DHT22;30138;20.964;105.830;2022-11-20T10:31:11;30.20;97.10
44435;DHT22;30138;20.964;105.830;2022-11-20T10:36:25;30.20;97.00
44435;DHT22;30138;20.964;105.830;2022-11-20T10:41:40;30.20;96.90
44435;DHT22;30138;20.964;105.830;2022-11-20T10:46:50;30.20;96.70
44435;DHT22;30138;20.964;105.830;2022-11-20T10:52:06;30.10;96.60
44435;DHT22;30138;20.964;105.830;2022-11-20T10:57:27;30.10;96.50
44435;DHT22;30138;20.964;105.830;2022-11-20T11:02:47;30.10;96.40
44435;DHT22;30138;20.964;105.830;2022-11-20T11:07:56;30.10;96.30
44435;DHT22;30138;20.964;105.830;2022-11-20T11:13:06;30.10;96.30
44435;DHT22;30138;20.964;105.830;2022-11-20T11:18:24;30.10;96.30
44435;DHT22;30138;20.964;105.830;2022-11-20T11:23:34;30.10;96.30
44435;DHT22;30138;20.964;105.830;2022-11-20T11:28:54;30.10;96.30
44435;DHT22;30138;20.964;105.830;2022-11-20T11:34:08;30.10;96.30
44435;DHT22;30138;20.964;105.830;2022-11-20T11:39:20;30.10;96.20
44435;DHT22;30138;20.964;105.830;2022-11-20T11:44:31;30.00;96.20
44435;DHT22;30138;20.964;105.830;2022-11-20T11:50:14;30.10;96.20
44435;DHT22;30138;20.964;105.830;2022-11-20T11:55:29;30.00;96.00
44435;DHT22;30138;20.964;105.830;2022-11-20T12:00:45;30.00;96.10
44435;DHT22;30138;20.964;105.830;2022-11-20T12:05:58;30.00;96.20
44435;DHT22;30138;20.964;105.830;2022-11-20T12:11:13;30.00;96.20
44435;DHT22;30138;20.964;105.830;2022-11-20T12:16:23;30.00;96.20
44435;DHT22;30138;20.964;105.830;2022-11-20T12:21:38;30.10;96.30
44435;DHT22;30138;20.964;105.830;2022-11-20T12:27:02;30.00;96.20
44435;DHT22;30138;20.964;105.830;2022-11-20T12:32:33;30.00;96.30
44435;DHT22;30138;20.964;105.830;2022-11-20T12:43:52;30.00;96.40
44435;DHT22;30138;20.964;105.830;2022-11-20T12:49:30;30.00;96.20
44435;DHT22;30138;20.964;105.830;2022-11-20T13:00:18;30.00;95.90
44435;DHT22;30138;20.964;105.830;2022-11-20T13:05:32;30.00;95.80
44435;DHT22;30138;20.964;105.830;2022-11-20T13:10:48;30.00;95.70
44435;DHT22;30138;20.964;105.830;2022-11-20T13:16:02;30.00;95.60
44435;DHT22;30138;20.964;105.830;2022-11-20T13:21:19;30.00;95.50
44435;DHT22;30138;20.964;105.830;2022-11-20T13:26:28;30.00;95.40
44435;DHT22;30138;20.964;105.830;2022-11-20T13:31:38;29.90;95.20
44435;DHT22;30138;20.964;105.830;2022-11-20T13:36:55;29.90;95.20
44435;DHT22;30138;20.964;105.830;2022-11-20T13:42:20;29.90;95.30
44435;DHT22;30138;20.964;105.830;2022-11-20T13:47:31;29.90;95.20
44435;DHT22;30138;20.964;105.830;2022-11-20T13:52:49;29.90;95.20
44435;DHT22;30138;20.964;105.830;2022-11-20T13:58:21;29.90;95.20
44435;DHT22;30138;20.964;105.830;2022-11-20T14:03:35;29.90;95.10
44435;DHT22;30138;20.964;105.830;2022-11-20T14:08:47;29.90;95.00
44435;DHT22;30138;20.964;105.830;2022-11-20T14:13:59;29.90;95.10
44435;DHT22;30138;20.964;105.830;2022-11-20T14:19:27;29.80;95.20
44435;DHT22;30138;20.964;105.830;2022-11-20T14:24:37;29.80;95.30
44435;DHT22;30138;20.964;105.830;2022-11-20T14:29:46;29.80;95.20
44435;DHT22;30138;20.964;105.830;2022-11-20T14:34:55;29.90;95.20
44435;DHT22;30138;20.964;105.830;2022-11-20T14:40:23;29.80;95.10
44435;DHT22;30138;20.964;105.830;2022-11-20T14:45:33;29.80;95.00
44435;DHT22;30138;20.964;105.830;2022-11-20T14:50:40;29.80;95.00
44435;DHT22;30138;20.964;105.830;2022-11-20T14:55:56;29.80;94.90
44435;DHT22;30138;20.964;105.830;2022-11-20T15:01:06;29.80;94.70
44435;DHT22;30138;20.964;105.830;2022-11-20T15:06:26;29.80;94.70
44435;DHT22;30138;20.964;105.830;2022-11-20T15:11:36;29.80;94.50
44435;DHT22;30138;20.964;105.830;2022-11-20T15:16:50;29.70;94.40
44435;DHT22;30138;20.964;105.830;2022-11-20T15:21:58;29.70;94.40
44435;DHT22;30138;20.964;105.830;2022-11-20T15:27:11;29.70;94.40
44435;DHT22;30138;20.964;105.830;2022-11-20T15:32:19;29.70;94.30
44435;DHT22;30138;20.964;105.830;2022-11-20T15:37:27;29.70;94.30
44435;DHT22;30138;20.964;105.830;2022-11-20T15:42:39;29.70;94.30
44435;DHT22;30138;20.964;105.830;2022-11-20T15:48:08;29.70;94.30
44435;DHT22;30138;20.964;105.830;2022-11-20T15:53:17;29.70;94.30
44435;DHT22;30138;20.964;105.830;2022-11-20T15:58:26;29.70;94.30
44435;DHT22;30138;20.964;105.830;2022-11-20T16:03:33;29.70;94.20
44435;DHT22;30138;20.964;105.830;2022-11-20T16:08:40;29.70;94.20
44435;DHT22;30138;20.964;105.830;2022-11-20T16:13:50;29.60;94.10
44435;DHT22;30138;20.964;105.830;2022-11-20T16:19:13;29.60;94.10
44435;DHT22;30138;20.964;105.830;2022-11-20T16:24:21;29.60;94.20
44435;DHT22;30138;20.964;105.830;2022-11-20T16:29:30;29.60;94.10
44435;DHT22;30138;20.964;105.830;2022-11-20T16:34:39;29.60;94.20
44435;DHT22;30138;20.964;105.830;2022-11-20T16:39:46;29.60;94.20
44435;DHT22;30138;20.964;105.830;2022-11-20T16:44:55;29.60;94.30
44435;DHT22;30138;20.964;105.830;2022-11-20T16:50:03;29.60;94.30
44435;DHT22;30138;20.964;105.830;2022-11-20T16:55:12;29.60;94.40
44435;DHT22;30138;20.964;105.830;2022-11-20T17:00:22;29.60;94.40
44435;DHT22;30138;20.964;105.830;2022-11-20T17:05:30;29.50;94.50
44435;DHT22;30138;20.964;105.830;2022-11-20T17:10:37;29.50;94.80
44435;DHT22;30138;20.964;105.830;2022-11-20T17:15:46;29.50;94.70
44435;DHT22;30138;20.964;105.830;2022-11-20T17:20:54;29.50;94.80
44435;DHT22;30138;20.964;105.830;2022-11-20T17:26:07;29.50;94.80
44435;DHT22;30138;20.964;105.830;2022-11-20T17:31:16;29.50;94.90
44435;DHT22;30138;20.964;105.830;2022-11-20T17:36:24;29.50;94.90
44435;DHT22;30138;20.964;105.830;2022-11-20T17:41:32;29.50;94.90
44435;DHT22;30138;20.964;105.830;2022-11-20T17:46:41;29.40;95.00
44435;DHT22;30138;20.964;105.830;2022-11-20T17:51:48;29.40;95.20
44435;DHT22;30138;20.964;105.830;2022-11-20T17:56:54;29.40;95.40
44435;DHT22;30138;20.964;105.830;2022-11-20T18:02:19;29.40;95.40
44435;DHT22;30138;20.964;105.830;2022-11-20T18:07:26;29.40;95.30
44435;DHT22;30138;20.964;105.830;2022-11-20T18:12:34;29.40;95.50
44435;DHT22;30138;20.964;105.830;2022-11-20T18:17:43;29.40;95.70
44435;DHT22;30138;20.964;105.830;2022-11-20T18:22:50;29.40;95.70
44435;DHT22;30138;20.964;105.830;2022-11-20T18:27:57;29.30;95.70
44435;DHT22;30138;20.964;105.830;2022-11-20T18:33:07;29.40;95.80
44435;DHT22;30138;20.964;105.830;2022-11-20T18:38:14;29.40;95.70
44435;DHT22;30138;20.964;105.830;2022-11-20T18:43:21;29.40;95.80
44435;DHT22;30138;20.964;105.830;2022-11-20T18:48:46;29.40;95.50
44435;DHT22;30138;20.964;105.830;2022-11-20T18:53:52;29.30;95.90
44435;DHT22;30138;20.964;105.830;2022-11-20T18:59:01;29.30;95.90
44435;DHT22;30138;20.964;105.830;2022-11-20T19:04:10;29.30;96.00
44435;DHT22;30138;20.964;105.830;2022-11-20T19:09:18;29.30;96.00
44435;DHT22;30138;20.964;105.830;2022-11-20T19:14:25;29.30;96.10
44435;DHT22;30138;20.964;105.830;2022-11-20T19:19:34;29.20;96.20
44435;DHT22;30138;20.964;105.830;2022-11-20T19:24:41;29.20;96.10
44435;DHT22;30138;20.964;105.830;2022-11-20T19:29:49;29.20;96.20
44435;DHT22;30138;20.964;105.830;2022-11-20T19:35:02;29.20;96.20
44435;DHT22;30138;20.964;105.830;2022-11-20T19:40:11;29.20;96.20
44435;DHT22;30138;20.964;105.830;2022-11-20T19:45:18;29.20;96.40
44435;DHT22;30138;20.964;105.830;2022-11-20T19:50:28;29.20;96.50
44435;DHT22;30138;20.964;105.830;2022-11-20T19:55:37;29.20;96.60
44435;DHT22;30138;20.964;105.830;2022-11-20T20:00:45;29.20;96.70
44435;DHT22;30138;20.964;105.830;2022-11-20T20:05:54;29.20;96.80
44435;DHT22;30138;20.964;105.830;2022-11-20T20:11:10;29.20;96.80
44435;DHT22;30138;20.964;105.830;2022-11-20T20:16:19;29.10;96.80
44435;DHT22;30138;20.964;105.830;2022-11-20T20:21:30;29.10;96.90
44435;DHT22;30138;20.964;105.830;2022-11-20T20:26:38;29.10;97.10
44435;DHT22;30138;20.964;105.830;2022-11-20T20:31:46;29.10;97.20
44435;DHT22;30138;20.964;105.830;2022-11-20T20:36:55;29.10;97.40
44435;DHT22;30138;20.964;105.830;2022-11-20T20:42:03;29.10;97.40
44435;DHT22;30138;20.964;105.830;2022-11-20T20:47:10;29.10;97.50
44435;DHT22;30138;20.964;105.830;2022-11-20T20:52:21;29.10;97.60
44435;DHT22;30138;20.964;105.830;2022-11-20T20:57:30;29.10;97.60
44435;DHT22;30138;20.964;105.830;2022-11-20T21:02:37;29.00;97.70
44435;DHT22;30138;20.964;105.830;2022-11-20T21:07:46;29.00;97.80
44435;DHT22;30138;20.964;105.830;2022-11-20T21:13:09;29.00;97.80
44435;DHT22;30138;20.964;105.830;2022-11-20T21:18:17;29.00;97.70
44435;DHT22;30138;20.964;105.830;2022-11-20T21:23:27;29.00;97.90
44435;DHT22;30138;20.964;105.830;2022-11-20T21:28:35;29.00;97.80
44435;DHT22;30138;20.964;105.830;2022-11-20T21:33:44;29.00;97.90
44435;DHT22;30138;20.964;105.830;2022-11-20T21:38:54;29.00;98.10
44435;DHT22;30138;20.964;105.830;2022-11-20T21:44:02;28.90;97.80
44435;DHT22;30138;20.964;105.830;2022-11-20T21:49:10;28.90;97.80
44435;DHT22;30138;20.964;105.830;2022-11-20T21:54:21;28.90;97.70
44435;DHT22;30138;20.964;105.830;2022-11-20T21:59:28;28.90;97.70
44435;DHT22;30138;20.964;105.830;2022-11-20T22:04:35;28.90;98.00
44435;DHT22;30138;20.964;105.830;2022-11-20T22:09:44;28.90;97.60
44435;DHT22;30138;20.964;105.830;2022-11-20T22:14:52;28.80;97.60
44435;DHT22;30138;20.964;105.830;2022-11-20T22:19:59;28.80;97.60
44435;DHT22;30138;20.964;105.830;2022-11-20T22:25:08;28.80;97.90
44435;DHT22;30138;20.964;105.830;2022-11-20T22:30:15;28.80;97.80
44435;DHT22;30138;20.964;105.830;2022-11-20T22:35:23;28.80;98.10
44435;DHT22;30138;20.964;105.830;2022-11-20T22:40:32;28.80;98.10
44435;DHT22;30138;20.964;105.830;2022-11-20T22:45:40;28.70;97.80
44435;DHT22;30138;20.964;105.830;2022-11-20T22:50:49;28.70;98.10
44435;DHT22;30138;20.964;105.830;2022-11-20T22:55:59;28.70;97.90
44435;DHT22;30138;20.964;105.830;2022-11-20T23:01:08;28.70;97.80
44435;DHT22;30138;20.964;105.830;2022-11-20T23:06:17;28.70;98.30
44435;DHT22;30138;20.964;105.830;2022-11-20T23:11:27;28.70;98.40
44435;DHT22;30138;20.964;105.830;2022-11-20T23:16:35;28.60;98.40
44435;DHT22;30138;20.964;105.830;2022-11-20T23:21:42;28.70;98.60
44435;DHT22;30138;20.964;105.830;2022-11-20T23:26:51;28.60;98.70
44435;DHT22;30138;20.964;105.830;2022-11-20T23:31:58;28.60;98.70
44435;DHT22;30138;20.964;105.830;2022-11-20T23:37:07;28.60;99.00
44435;DHT22;30138;20.964;105.830;2022-11-20T23:42:16;28.60;99.00
44435;DHT22;30138;20.964;105.830;2022-11-20T23:47:23;28.60;99.00
44435;DHT22;30138;20.964;105.830;2022-11-20T23:52:30;28.60;99.20
44435;DHT22;30138;20.964;105.830;2022-11-20T23:57:41;28.60;99.20
